Time;durP1;ratioP1;P1;durP2;ratioP2;P2;SDS_P1;SDS_P2;PMS_P1;PMS_P2;Temp;Humidity;BMP_temperature;BMP_pressure;BME280_temperature;BME280_humidity;BME280_pressure;Samples;Min_cycle;Max_cycle;Signal;HPM_P1;HPM_P2
2023/10/01 00:00:46;;;;;;;15.57;8.07;;;;;;;;;;5021013;28;20253;-80
2023/10/01 00:03:14;;;;;;;13.10;6.73;;;;;;;;;;5038887;28;20436;-79
2023/10/01 00:05:42;;;;;;;13.47;7.57;;;;;;;;;;5026237;28;20243;-82
2023/10/01 00:08:12;;;;;;;14.40;8.67;;;;;;;;;;5035070;28;20267;-83
2023/10/01 00:10:42;;;;;;;17.17;8.87;;;;;;;;;;5049086;28;20237;-82
2023/10/01 00:13:09;;;;;;;16.87;9.00;;;;;;;;;;5039426;28;20273;-79
2023/10/01 00:15:37;;;;;;;13.13;8.07;;;;;;;;;;5016311;28;20229;-80
2023/10/01 00:18:08;;;;;;;14.13;7.43;;;;;;;;;;5016121;28;20201;-81
2023/10/01 00:20:35;;;;;;;11.83;7.67;;;;;;;;;;5020690;28;20290;-80
2023/10/01 00:23:03;;;;;;;12.53;7.47;;;;;;;;;;5023224;28;20615;-80
2023/10/01 00:25:32;;;;;;;12.80;7.73;;;;;;;;;;5021439;28;20219;-80
2023/10/01 00:28:00;;;;;;;12.57;7.37;;;;;;;;;;5031728;28;20203;-83
2023/10/01 00:30:31;;;;;;;13.47;8.13;;;;;;;;;;5035746;28;20219;-83
2023/10/01 00:33:05;;;;;;;13.97;8.17;;;;;;;;;;5042973;28;20288;-80
2023/10/01 00:35:33;;;;;;;14.70;8.50;;;;;;;;;;5046352;28;20223;-85
2023/10/01 00:38:01;;;;;;;21.27;11.33;;;;;;;;;;5045716;28;20208;-83
2023/10/01 00:40:29;;;;;;;13.77;8.70;;;;;;;;;;5038392;28;20203;-82
2023/10/01 00:42:57;;;;;;;13.07;7.67;;;;;;;;;;5045137;28;20210;-82
2023/10/01 00:45:25;;;;;;;19.37;11.10;;;;;;;;;;5056182;28;20795;-83
2023/10/01 00:47:53;;;;;;;14.80;8.17;;;;;;;;;;5029501;28;20668;-81
2023/10/01 00:50:22;;;;;;;12.70;7.93;;;;;;;;;;5036069;28;20215;-82
2023/10/01 00:52:51;;;;;;;13.67;7.57;;;;;;;;;;5034798;28;20209;-81
2023/10/01 00:55:20;;;;;;;11.50;7.47;;;;;;;;;;5038461;28;20223;-82
2023/10/01 00:57:49;;;;;;;13.07;7.50;;;;;;;;;;5046738;28;20297;-82
2023/10/01 01:00:19;;;;;;;12.83;7.87;;;;;;;;;;5048028;28;20210;-81
2023/10/01 01:02:57;;;;;;;14.17;7.73;;;;;;;;;;5029646;28;20210;-82
2023/10/01 01:05:28;;;;;;;11.07;7.63;;;;;;;;;;5033082;28;20657;-84
2023/10/01 01:08:00;;;;;;;10.37;7.17;;;;;;;;;;5036516;28;20563;-82
2023/10/01 01:10:31;;;;;;;14.10;7.63;;;;;;;;;;5032410;28;20705;-82
2023/10/01 01:13:00;;;;;;;14.03;7.87;;;;;;;;;;5019433;28;20577;-83
2023/10/01 01:15:34;;;;;;;11.93;7.37;;;;;;;;;;5030952;28;20243;-84
2023/10/01 01:18:07;;;;;;;12.33;7.33;;;;;;;;;;5034332;28;20260;-85
2023/10/01 01:20:43;;;;;;;13.00;7.73;;;;;;;;;;5018291;28;20260;-83
2023/10/01 01:23:14;;;;;;;13.50;7.63;;;;;;;;;;5013382;28;20306;-80
2023/10/01 01:25:42;;;;;;;12.47;7.40;;;;;;;;;;5034679;28;20273;-82
2023/10/01 01:28:12;;;;;;;12.47;7.27;;;;;;;;;;5041672;28;20257;-83
2023/10/01 01:30:43;;;;;;;14.80;7.83;;;;;;;;;;5016338;28;20258;-82
2023/10/01 01:33:20;;;;;;;12.70;7.40;;;;;;;;;;5035231;28;20202;-82
2023/10/01 01:35:51;;;;;;;15.33;7.97;;;;;;;;;;5028755;28;20226;-82
2023/10/01 01:38:20;;;;;;;12.13;7.30;;;;;;;;;;5017318;28;20246;-82
2023/10/01 01:40:51;;;;;;;12.03;7.70;;;;;;;;;;5017176;28;20206;-81
2023/10/01 01:43:30;;;;;;;15.87;8.97;;;;;;;;;;5033437;28;20203;-83
2023/10/01 01:46:03;;;;;;;13.33;8.03;;;;;;;;;;5028316;28;20261;-82
2023/10/01 01:48:33;;;;;;;11.17;6.87;;;;;;;;;;5029120;28;20286;-83
2023/10/01 01:51:03;;;;;;;12.53;7.20;;;;;;;;;;5034996;28;20231;-82
2023/10/01 01:53:34;;;;;;;12.50;7.20;;;;;;;;;;5033566;28;20211;-84
2023/10/01 01:56:10;;;;;;;47.13;20.87;;;;;;;;;;5040199;28;20313;-84
2023/10/01 01:58:39;;;;;;;73.57;31.13;;;;;;;;;;5018050;28;20231;-83
2023/10/01 02:03:46;;;;;;;41.67;18.63;;;;;;;;;;5031094;28;20207;-81
2023/10/01 02:06:26;;;;;;;39.13;17.87;;;;;;;;;;5033672;28;20239;-79
2023/10/01 02:08:57;;;;;;;29.17;14.27;;;;;;;;;;5043616;28;20229;-81
2023/10/01 02:11:25;;;;;;;51.33;24.03;;;;;;;;;;5012707;28;20252;-83
2023/10/01 02:13:57;;;;;;;34.00;15.80;;;;;;;;;;5037961;28;20194;-84
2023/10/01 02:18:56;;;;;;;23.93;12.30;;;;;;;;;;5025504;28;20200;-82
2023/10/01 02:21:43;;;;;;;18.27;9.50;;;;;;;;;;5017519;28;20217;-81
2023/10/01 02:24:12;;;;;;;17.23;9.23;;;;;;;;;;5027837;28;20235;-82
2023/10/01 02:26:39;;;;;;;20.10;9.23;;;;;;;;;;5012771;28;20211;-82
2023/10/01 02:29:09;;;;;;;14.70;8.77;;;;;;;;;;5038703;28;20202;-81
2023/10/01 02:31:39;;;;;;;15.97;8.57;;;;;;;;;;5040669;28;20233;-81
2023/10/01 02:34:08;;;;;;;15.53;8.67;;;;;;;;;;5038162;28;20206;-81
2023/10/01 02:36:42;;;;;;;15.63;8.63;;;;;;;;;;5040487;28;20206;-82
2023/10/01 02:39:27;;;;;;;15.20;8.43;;;;;;;;;;5022216;28;20218;-80
2023/10/01 02:44:35;;;;;;;14.73;8.17;;;;;;;;;;5037608;28;20241;-83
2023/10/01 02:47:09;;;;;;;13.67;8.47;;;;;;;;;;5026440;28;20261;-81
2023/10/01 02:49:47;;;;;;;14.90;8.10;;;;;;;;;;5032606;28;20259;-83
2023/10/01 02:52:15;;;;;;;15.10;7.90;;;;;;;;;;5030990;28;20321;-81
2023/10/01 02:54:42;;;;;;;13.57;7.80;;;;;;;;;;5024472;28;20223;-82
2023/10/01 02:57:12;;;;;;;15.07;7.50;;;;;;;;;;5018892;28;20562;-80
2023/10/01 03:00:19;;;;;;;13.70;7.87;;;;;;;;;;5023930;28;20213;-80
2023/10/01 03:02:33;;;;;;;15.77;8.33;;;;;;;;;;5019287;28;20270;-83
2023/10/01 03:05:05;;;;;;;12.70;8.13;;;;;;;;;;5024540;28;20227;-81
2023/10/01 03:07:38;;;;;;;12.30;7.17;;;;;;;;;;5023647;28;20206;-82
2023/10/01 03:10:16;;;;;;;14.13;7.37;;;;;;;;;;5021224;28;20686;-81
2023/10/01 03:12:49;;;;;;;10.60;6.70;;;;;;;;;;5027279;28;20238;-83
2023/10/01 03:15:24;;;;;;;13.70;7.70;;;;;;;;;;5008092;28;20224;-83
2023/10/01 03:18:05;;;;;;;13.60;8.20;;;;;;;;;;5015130;28;20194;-82
2023/10/01 03:23:24;;;;;;;11.23;7.60;;;;;;;;;;5023139;28;20889;-80
2023/10/01 03:26:07;;;;;;;11.03;7.10;;;;;;;;;;5024216;28;20720;-84
2023/10/01 03:31:22;;;;;;;11.97;7.60;;;;;;;;;;5022066;28;20302;-82
2023/10/01 03:33:56;;;;;;;12.07;7.73;;;;;;;;;;5005254;28;20203;-82
2023/10/01 03:36:28;;;;;;;12.43;7.63;;;;;;;;;;5026997;28;20341;-79
2023/10/01 03:42:03;;;;;;;11.97;7.63;;;;;;;;;;5014639;28;20670;-84
2023/10/01 03:44:59;;;;;;;13.90;8.00;;;;;;;;;;5023774;28;20222;-83
2023/10/01 03:47:29;;;;;;;13.50;7.80;;;;;;;;;;5007790;28;20707;-81
2023/10/01 03:49:57;;;;;;;11.80;7.07;;;;;;;;;;5021915;28;20206;-80
2023/10/01 03:52:29;;;;;;;12.93;7.83;;;;;;;;;;5020949;28;20219;-81
2023/10/01 03:55:00;;;;;;;13.83;7.77;;;;;;;;;;5025589;28;20736;-83
2023/10/01 03:57:29;;;;;;;16.97;8.20;;;;;;;;;;5022818;28;21193;-79
2023/10/01 03:59:57;;;;;;;13.83;8.23;;;;;;;;;;5027043;28;20748;-84
2023/10/01 04:02:46;;;;;;;12.43;7.73;;;;;;;;;;5022573;28;20218;-82
2023/10/01 04:08:11;;;;;;;11.23;7.77;;;;;;;;;;5009683;28;20250;-82
2023/10/01 04:10:39;;;;;;;11.70;7.80;;;;;;;;;;5020398;28;20208;-84
2023/10/01 04:13:13;;;;;;;11.97;7.20;;;;;;;;;;5019453;28;20227;-83
2023/10/01 04:15:55;;;;;;;14.30;8.57;;;;;;;;;;5026542;28;20708;-83
2023/10/01 04:18:24;;;;;;;16.13;8.13;;;;;;;;;;5009409;28;20205;-84
2023/10/01 04:23:29;;;;;;;16.70;9.40;;;;;;;;;;5023536;28;20226;-81
2023/10/01 04:25:56;;;;;;;16.17;9.97;;;;;;;;;;5026686;28;20223;-80
2023/10/01 04:28:24;;;;;;;12.67;7.90;;;;;;;;;;5026960;28;20202;-82
2023/10/01 04:30:51;;;;;;;12.97;7.70;;;;;;;;;;5021186;28;20207;-82
2023/10/01 04:33:23;;;;;;;11.47;7.10;;;;;;;;;;5012121;28;20282;-82
2023/10/01 04:35:58;;;;;;;14.73;8.83;;;;;;;;;;5034312;28;20776;-81
2023/10/01 04:38:29;;;;;;;16.17;9.40;;;;;;;;;;5009849;28;20199;-81
2023/10/01 04:40:57;;;;;;;17.97;10.07;;;;;;;;;;5017195;28;20199;-80
2023/10/01 04:43:26;;;;;;;15.07;9.23;;;;;;;;;;5002022;28;20199;-81
2023/10/01 04:45:53;;;;;;;18.70;10.60;;;;;;;;;;5030419;28;20728;-83
2023/10/01 04:48:24;;;;;;;16.93;9.67;;;;;;;;;;5007936;28;20216;-81
2023/10/01 04:50:54;;;;;;;18.20;10.20;;;;;;;;;;5001929;28;20203;-81
2023/10/01 04:53:22;;;;;;;20.43;11.57;;;;;;;;;;5021960;28;20238;-83
2023/10/01 04:56:05;;;;;;;21.40;12.83;;;;;;;;;;5032698;28;20677;-80
2023/10/01 04:58:37;;;;;;;16.83;9.80;;;;;;;;;;5025388;28;20195;-82
2023/10/01 05:01:05;;;;;;;16.73;10.07;;;;;;;;;;5029401;28;20230;-82
2023/10/01 05:03:39;;;;;;;21.80;13.13;;;;;;;;;;5030614;28;20289;-82
2023/10/01 05:06:13;;;;;;;16.97;11.13;;;;;;;;;;5027984;28;20250;-80
2023/10/01 05:08:42;;;;;;;17.20;10.93;;;;;;;;;;5015064;28;20199;-81
2023/10/01 05:11:11;;;;;;;19.53;10.43;;;;;;;;;;5034154;28;20287;-82
2023/10/01 05:13:41;;;;;;;19.93;10.80;;;;;;;;;;5017003;28;20681;-81
2023/10/01 05:16:13;;;;;;;15.83;9.63;;;;;;;;;;5044763;28;20261;-81
2023/10/01 05:18:45;;;;;;;12.80;7.63;;;;;;;;;;5036670;28;20207;-81
2023/10/01 05:21:12;;;;;;;13.30;8.13;;;;;;;;;;5019289;28;20199;-83
2023/10/01 05:23:40;;;;;;;15.00;8.40;;;;;;;;;;5034788;28;20300;-81
2023/10/01 05:26:11;;;;;;;13.13;7.70;;;;;;;;;;5032299;28;20709;-83
2023/10/01 05:28:42;;;;;;;13.67;8.40;;;;;;;;;;5027970;28;20270;-84
2023/10/01 05:31:12;;;;;;;17.97;10.30;;;;;;;;;;5032422;28;20199;-83
2023/10/01 05:33:46;;;;;;;14.30;8.67;;;;;;;;;;5012516;28;20219;-83
2023/10/01 05:36:16;;;;;;;20.87;12.30;;;;;;;;;;5051399;28;20282;-78
2023/10/01 05:38:44;;;;;;;34.50;18.90;;;;;;;;;;5055827;28;20234;-81
2023/10/01 05:41:15;;;;;;;35.47;18.40;;;;;;;;;;5040329;28;20238;-81
2023/10/01 05:43:43;;;;;;;32.80;17.17;;;;;;;;;;5040183;28;20234;-80
2023/10/01 05:46:11;;;;;;;21.43;12.30;;;;;;;;;;5022322;28;20219;-82
2023/10/01 05:48:39;;;;;;;18.53;10.67;;;;;;;;;;5034901;28;20203;-83
2023/10/01 05:51:19;;;;;;;18.67;10.73;;;;;;;;;;5017777;28;20250;-84
2023/10/01 05:53:48;;;;;;;17.00;9.77;;;;;;;;;;5036385;28;20210;-83
2023/10/01 05:56:17;;;;;;;17.40;10.13;;;;;;;;;;5036339;28;20218;-82
2023/10/01 05:58:45;;;;;;;16.97;9.27;;;;;;;;;;5036453;28;20205;-84
2023/10/01 06:01:16;;;;;;;13.87;8.27;;;;;;;;;;5016796;28;20199;-80
2023/10/01 06:03:44;;;;;;;14.27;8.53;;;;;;;;;;5020170;28;20202;-81
2023/10/01 06:06:25;;;;;;;14.73;8.70;;;;;;;;;;5037632;28;20233;-80
2023/10/01 06:08:59;;;;;;;14.47;9.23;;;;;;;;;;5035422;28;20206;-83
2023/10/01 06:15:08;;;;;;;38.03;21.70;;;;;;;;;;5037266;28;20224;-81
2023/10/01 06:17:07;;;;;;;21.83;13.20;;;;;;;;;;5027045;28;20203;-82
2023/10/01 06:19:38;;;;;;;21.27;11.70;;;;;;;;;;5028828;28;20265;-80
2023/10/01 06:22:22;;;;;;;19.50;10.53;;;;;;;;;;5036028;28;20242;-81
2023/10/01 06:24:51;;;;;;;21.03;12.07;;;;;;;;;;5023385;28;20226;-82
2023/10/01 06:27:19;;;;;;;17.37;10.83;;;;;;;;;;5020730;28;20222;-83
2023/10/01 06:29:49;;;;;;;19.10;11.33;;;;;;;;;;5039882;28;20198;-82
2023/10/01 06:32:20;;;;;;;19.90;13.27;;;;;;;;;;5015271;28;20234;-84
2023/10/01 06:34:49;;;;;;;22.53;15.07;;;;;;;;;;5042189;28;20230;-82
2023/10/01 06:37:19;;;;;;;30.00;18.90;;;;;;;;;;5035228;28;20199;-82
2023/10/01 06:39:46;;;;;;;28.87;17.90;;;;;;;;;;5039195;28;20310;-82
2023/10/01 06:42:23;;;;;;;30.87;19.07;;;;;;;;;;5033886;28;20203;-82
2023/10/01 06:44:52;;;;;;;24.60;15.67;;;;;;;;;;5019608;28;20237;-83
2023/10/01 06:47:22;;;;;;;26.20;15.17;;;;;;;;;;5035927;28;20281;-84
2023/10/01 06:49:57;;;;;;;23.33;13.67;;;;;;;;;;5009591;28;20366;-81
2023/10/01 06:52:29;;;;;;;22.73;12.17;;;;;;;;;;5006825;28;20234;-82
2023/10/01 06:54:57;;;;;;;17.03;10.87;;;;;;;;;;5032196;28;20229;-83
2023/10/01 06:57:27;;;;;;;20.17;10.97;;;;;;;;;;5029313;28;20195;-84
2023/10/01 06:59:59;;;;;;;19.70;10.63;;;;;;;;;;5033008;28;20213;-83
2023/10/01 07:02:27;;;;;;;15.60;9.87;;;;;;;;;;5009526;28;20247;-83
2023/10/01 07:04:58;;;;;;;16.87;9.73;;;;;;;;;;5016955;28;20296;-83
2023/10/01 07:07:29;;;;;;;18.33;11.50;;;;;;;;;;5017734;28;20215;-82
2023/10/01 07:09:56;;;;;;;19.23;12.27;;;;;;;;;;5032216;28;20710;-83
2023/10/01 07:12:24;;;;;;;21.40;13.17;;;;;;;;;;5012962;28;20239;-82
2023/10/01 07:14:52;;;;;;;21.73;12.00;;;;;;;;;;5038156;28;20274;-82
2023/10/01 07:17:24;;;;;;;20.20;11.53;;;;;;;;;;5036521;28;20210;-80
2023/10/01 07:20:18;;;;;;;17.43;10.37;;;;;;;;;;5017171;28;20199;-84
2023/10/01 07:22:44;;;;;;;17.10;9.70;;;;;;;;;;5035298;28;20281;-81
2023/10/01 07:27:58;;;;;;;19.90;10.13;;;;;;;;;;5036711;28;20681;-81
2023/10/01 07:30:39;;;;;;;18.23;9.77;;;;;;;;;;5028658;28;20226;-82
2023/10/01 07:33:08;;;;;;;17.93;9.43;;;;;;;;;;5034855;28;20234;-83
2023/10/01 07:35:40;;;;;;;19.27;9.53;;;;;;;;;;5040258;28;20249;-82
2023/10/01 07:38:08;;;;;;;17.50;8.90;;;;;;;;;;5039713;28;20203;-80
2023/10/01 07:40:52;;;;;;;15.17;9.53;;;;;;;;;;5037769;28;20198;-82
2023/10/01 07:43:21;;;;;;;20.00;9.50;;;;;;;;;;5027758;28;20296;-80
2023/10/01 07:45:55;;;;;;;19.17;9.60;;;;;;;;;;5017793;28;20230;-79
2023/10/01 07:48:27;;;;;;;15.50;9.23;;;;;;;;;;5020572;28;20223;-84
2023/10/01 07:50:55;;;;;;;15.63;8.52;;;;;;;;;;5024426;28;20222;-82
2023/10/01 07:53:23;;;;;;;17.73;8.88;;;;;;;;;;5016154;28;20277;-81
2023/10/01 07:55:50;;;;;;;16.52;8.57;;;;;;;;;;5018697;28;20231;-82
2023/10/01 07:58:24;;;;;;;17.13;8.23;;;;;;;;;;5019962;28;20276;-81
2023/10/01 08:01:32;;;;;;;16.70;8.70;;;;;;;;;;5009398;28;20206;-85
2023/10/01 08:03:55;;;;;;;15.25;8.68;;;;;;;;;;5022683;28;20210;-85
2023/10/01 08:06:41;;;;;;;17.52;9.10;;;;;;;;;;5018702;28;20223;-82
2023/10/01 08:09:13;;;;;;;17.23;9.18;;;;;;;;;;5020591;28;20207;-83
2023/10/01 08:12:05;;;;;;;19.63;9.73;;;;;;;;;;5018988;28;20262;-80
2023/10/01 08:14:33;;;;;;;15.38;8.20;;;;;;;;;;5012964;28;20302;-84
2023/10/01 08:17:02;;;;;;;15.85;8.60;;;;;;;;;;5011361;28;20617;-81
2023/10/01 08:19:44;;;;;;;17.85;8.68;;;;;;;;;;5015198;28;20241;-81
2023/10/01 08:22:22;;;;;;;15.68;9.07;;;;;;;;;;5029937;28;20634;-84
2023/10/01 08:24:51;;;;;;;16.45;8.15;;;;;;;;;;5025755;28;20221;-83
2023/10/01 08:27:32;;;;;;;16.70;8.25;;;;;;;;;;5005233;28;20199;-81
2023/10/01 08:30:17;;;;;;;14.07;7.72;;;;;;;;;;5022156;28;20203;-85
2023/10/01 08:33:18;;;;;;;16.95;8.27;;;;;;;;;;5019686;28;20772;-81
2023/10/01 08:35:38;;;;;;;15.45;7.97;;;;;;;;;;5018775;28;20223;-81
2023/10/01 08:38:15;;;;;;;15.98;8.77;;;;;;;;;;5021304;28;20611;-82
2023/10/01 08:40:43;;;;;;;17.88;8.70;;;;;;;;;;5017789;28;20202;-81
2023/10/01 08:43:16;;;;;;;16.95;8.38;;;;;;;;;;5023015;28;20207;-83
2023/10/01 08:45:47;;;;;;;15.18;7.68;;;;;;;;;;5023252;28;20235;-83
2023/10/01 08:48:17;;;;;;;15.45;8.35;;;;;;;;;;5022780;28;20350;-84
2023/10/01 08:50:46;;;;;;;18.10;8.57;;;;;;;;;;5022585;28;20291;-83
2023/10/01 08:53:14;;;;;;;16.50;7.82;;;;;;;;;;5033207;28;20260;-82
2023/10/01 08:58:25;;;;;;;14.88;7.70;;;;;;;;;;5024743;28;20202;-80
2023/10/01 09:01:10;;;;;;;13.63;7.53;;;;;;;;;;5023979;28;20207;-80
2023/10/01 09:03:39;;;;;;;15.80;8.15;;;;;;;;;;5016056;28;20211;-82
2023/10/01 09:06:08;;;;;;;13.15;7.20;;;;;;;;;;5015931;28;20722;-82
2023/10/01 09:08:42;;;;;;;14.40;7.40;;;;;;;;;;5031926;28;20744;-81
2023/10/01 09:11:14;;;;;;;14.93;7.45;;;;;;;;;;5001270;28;20210;-80
2023/10/01 09:13:45;;;;;;;15.60;7.55;;;;;;;;;;5025841;28;20234;-82
2023/10/01 09:16:13;;;;;;;15.55;8.00;;;;;;;;;;5008467;28;20242;-81
2023/10/01 09:19:04;;;;;;;14.00;7.20;;;;;;;;;;5028805;28;20233;-82
2023/10/01 09:21:41;;;;;;;12.85;7.32;;;;;;;;;;5023560;28;20210;-81
2023/10/01 09:24:38;;;;;;;12.98;7.28;;;;;;;;;;5020596;28;20207;-79
2023/10/01 09:27:18;;;;;;;12.15;7.45;;;;;;;;;;5009084;28;20230;-82
2023/10/01 09:29:48;;;;;;;12.88;6.75;;;;;;;;;;5024582;28;20295;-80
2023/10/01 09:32:19;;;;;;;12.32;6.90;;;;;;;;;;5026283;28;20217;-84
2023/10/01 09:34:56;;;;;;;14.05;6.90;;;;;;;;;;5019733;28;20355;-80
2023/10/01 09:37:52;;;;;;;11.43;6.95;;;;;;;;;;5021686;28;20203;-84
2023/10/01 09:43:03;;;;;;;13.35;7.38;;;;;;;;;;5012749;28;20266;-81
2023/10/01 09:45:39;;;;;;;12.50;7.47;;;;;;;;;;5013622;28;20292;-80
2023/10/01 09:48:09;;;;;;;13.98;7.03;;;;;;;;;;5022042;28;20206;-80
2023/10/01 09:50:47;;;;;;;12.50;7.55;;;;;;;;;;5026255;28;20228;-80
2023/10/01 09:53:15;;;;;;;14.73;7.93;;;;;;;;;;5017579;28;20267;-80
2023/10/01 09:55:47;;;;;;;13.95;7.53;;;;;;;;;;5020711;28;20230;-83
2023/10/01 09:58:24;;;;;;;13.38;7.18;;;;;;;;;;5028544;28;20203;-81
2023/10/01 10:00:53;;;;;;;14.00;7.53;;;;;;;;;;5025086;28;20211;-82
2023/10/01 10:03:20;;;;;;;12.38;7.20;;;;;;;;;;5026561;28;20627;-83
2023/10/01 10:05:48;;;;;;;12.20;6.90;;;;;;;;;;5020072;28;22124;-82
2023/10/01 10:08:20;;;;;;;13.68;6.70;;;;;;;;;;5018619;28;20643;-82
2023/10/01 10:10:52;;;;;;;12.90;6.95;;;;;;;;;;5014499;28;20356;-80
2023/10/01 10:13:49;;;;;;;15.57;7.70;;;;;;;;;;5017326;28;21489;-81
2023/10/01 10:16:32;;;;;;;13.90;6.97;;;;;;;;;;5002013;28;20219;-84
2023/10/01 10:19:12;;;;;;;13.70;7.57;;;;;;;;;;5013186;28;20204;-84
2023/10/01 10:24:47;;;;;;;13.57;8.20;;;;;;;;;;5023282;28;20230;-84
2023/10/01 10:27:27;;;;;;;13.02;7.20;;;;;;;;;;5023528;28;20243;-82
2023/10/01 10:30:00;;;;;;;12.38;7.03;;;;;;;;;;5020238;28;20209;-80
2023/10/01 10:32:29;;;;;;;11.55;7.22;;;;;;;;;;5008606;28;20607;-80
2023/10/01 10:35:06;;;;;;;11.18;6.60;;;;;;;;;;5018386;28;20230;-83
2023/10/01 10:37:36;;;;;;;14.68;7.35;;;;;;;;;;5026198;28;20209;-82
2023/10/01 10:42:47;;;;;;;11.45;6.45;;;;;;;;;;5034596;28;20266;-84
2023/10/01 10:45:21;;;;;;;11.27;7.10;;;;;;;;;;5021693;28;20219;-82
2023/10/01 10:48:04;;;;;;;11.38;6.57;;;;;;;;;;5010743;28;20285;-83
2023/10/01 10:50:50;;;;;;;12.73;6.50;;;;;;;;;;5026624;28;20473;-86
2023/10/01 10:53:29;;;;;;;11.25;6.72;;;;;;;;;;5003784;28;20241;-82
2023/10/01 10:56:04;;;;;;;12.45;6.85;;;;;;;;;;5021815;28;20222;-81
2023/10/01 10:58:37;;;;;;;10.23;6.38;;;;;;;;;;5027647;28;20203;-84
2023/10/01 11:01:20;;;;;;;12.48;7.72;;;;;;;;;;5017006;28;20215;-85
2023/10/01 11:03:49;;;;;;;11.15;6.70;;;;;;;;;;5014757;28;20296;-84
2023/10/01 11:06:23;;;;;;;11.52;7.00;;;;;;;;;;5018280;28;20235;-83
2023/10/01 11:08:54;;;;;;;10.32;6.45;;;;;;;;;;5015660;28;20210;-79
2023/10/01 11:11:28;;;;;;;11.95;7.00;;;;;;;;;;5002031;28;20210;-80
2023/10/01 11:14:17;;;;;;;11.68;7.25;;;;;;;;;;5017702;28;20992;-81
2023/10/01 11:16:49;;;;;;;9.98;6.50;;;;;;;;;;5009937;28;20235;-86
2023/10/01 11:19:28;;;;;;;11.45;6.57;;;;;;;;;;5007073;28;20199;-82
2023/10/01 11:21:57;;;;;;;9.95;6.32;;;;;;;;;;5003496;28;20222;-82
2023/10/01 11:24:25;;;;;;;10.05;6.30;;;;;;;;;;5025958;28;20777;-83
2023/10/01 11:27:14;;;;;;;13.25;6.88;;;;;;;;;;5031845;28;20231;-81
2023/10/01 11:29:42;;;;;;;10.63;6.68;;;;;;;;;;5023257;28;20222;-83
2023/10/01 11:32:16;;;;;;;7.97;5.80;;;;;;;;;;5021606;28;20309;-81
2023/10/01 11:34:55;;;;;;;10.70;6.60;;;;;;;;;;5021114;28;20238;-83
2023/10/01 11:37:30;;;;;;;10.85;6.78;;;;;;;;;;5024602;28;20808;-82
2023/10/01 11:39:57;;;;;;;11.82;6.82;;;;;;;;;;5017006;28;20199;-80
2023/10/01 11:42:38;;;;;;;12.07;7.20;;;;;;;;;;5027895;28;20205;-82
2023/10/01 11:45:31;;;;;;;12.20;7.65;;;;;;;;;;5017400;28;20238;-80
2023/10/01 11:48:19;;;;;;;9.50;6.10;;;;;;;;;;5036240;28;20198;-83
2023/10/01 11:50:50;;;;;;;11.63;7.00;;;;;;;;;;5015733;28;20289;-83
2023/10/01 11:53:28;;;;;;;9.85;6.28;;;;;;;;;;5025715;28;20227;-82
2023/10/01 11:56:01;;;;;;;10.30;6.88;;;;;;;;;;5010234;28;20273;-79
2023/10/01 11:58:29;;;;;;;11.13;6.80;;;;;;;;;;5036126;28;20218;-81
2023/10/01 12:01:00;;;;;;;9.73;6.40;;;;;;;;;;5029493;28;20203;-81
2023/10/01 12:03:27;;;;;;;11.23;6.90;;;;;;;;;;5028898;28;20203;-80
2023/10/01 12:05:56;;;;;;;9.50;6.05;;;;;;;;;;5039631;28;20233;-80
2023/10/01 12:08:47;;;;;;;9.52;5.78;;;;;;;;;;5028260;28;20203;-84
2023/10/01 12:11:26;;;;;;;9.32;6.20;;;;;;;;;;5031048;28;20213;-80
2023/10/01 12:14:06;;;;;;;9.07;5.72;;;;;;;;;;5027238;28;20236;-82
2023/10/01 12:16:39;;;;;;;8.45;5.70;;;;;;;;;;5013123;28;20444;-81
2023/10/01 12:19:25;;;;;;;9.52;6.13;;;;;;;;;;5027343;28;20310;-82
2023/10/01 12:22:05;;;;;;;10.05;5.97;;;;;;;;;;5006780;28;20204;-81
2023/10/01 12:24:45;;;;;;;10.68;6.35;;;;;;;;;;5028673;28;20226;-82
2023/10/01 12:27:37;;;;;;;10.05;5.95;;;;;;;;;;5027422;28;20603;-83
2023/10/01 12:30:00;;;;;;;11.48;5.93;;;;;;;;;;5028948;28;20206;-82
2023/10/01 12:32:40;;;;;;;8.90;5.75;;;;;;;;;;5011923;28;20202;-83
2023/10/01 12:35:26;;;;;;;9.93;6.20;;;;;;;;;;5009768;28;20289;-82
2023/10/01 12:38:05;;;;;;;9.95;6.28;;;;;;;;;;5006595;28;20451;-81
2023/10/01 12:40:36;;;;;;;10.05;5.95;;;;;;;;;;5007904;28;20293;-82
2023/10/01 12:43:32;;;;;;;10.13;6.18;;;;;;;;;;5018327;28;20204;-82
2023/10/01 12:45:54;;;;;;;8.95;5.82;;;;;;;;;;5021695;28;20235;-80
2023/10/01 12:48:21;;;;;;;10.35;6.40;;;;;;;;;;5018039;28;20210;-80
2023/10/01 12:51:03;;;;;;;10.07;6.40;;;;;;;;;;5027205;28;20689;-81
2023/10/01 12:53:34;;;;;;;10.45;6.30;;;;;;;;;;5024080;28;20223;-80
2023/10/01 12:56:05;;;;;;;10.45;6.70;;;;;;;;;;5027145;28;20219;-83
2023/10/01 12:58:39;;;;;;;11.95;6.75;;;;;;;;;;5018023;28;20203;-81
2023/10/01 13:01:23;;;;;;;9.90;6.18;;;;;;;;;;5018678;28;20218;-81
2023/10/01 13:03:51;;;;;;;11.60;6.85;;;;;;;;;;5020252;28;20231;-83
2023/10/01 13:06:18;;;;;;;9.02;6.38;;;;;;;;;;5032372;28;20227;-81
2023/10/01 13:08:46;;;;;;;12.25;7.00;;;;;;;;;;5027508;28;20268;-81
2023/10/01 13:14:17;;;;;;;12.95;7.85;;;;;;;;;;5027911;28;20223;-82
2023/10/01 13:17:01;;;;;;;11.73;6.93;;;;;;;;;;5025388;28;20207;-81
2023/10/01 13:19:33;;;;;;;10.90;7.30;;;;;;;;;;5031701;28;20199;-81
2023/10/01 13:22:04;;;;;;;9.07;6.80;;;;;;;;;;5029640;28;20238;-81
2023/10/01 13:24:32;;;;;;;12.38;7.40;;;;;;;;;;5018470;28;20223;-82
2023/10/01 13:27:10;;;;;;;10.15;6.78;;;;;;;;;;5033240;28;20203;-83
2023/10/01 13:29:38;;;;;;;12.38;7.28;;;;;;;;;;5027420;28;20209;-81
2023/10/01 13:32:32;;;;;;;11.35;7.38;;;;;;;;;;5038180;28;20230;-84
2023/10/01 13:35:20;;;;;;;14.95;7.95;;;;;;;;;;5042590;28;20244;-81
2023/10/01 13:37:44;;;;;;;13.13;8.48;;;;;;;;;;5032703;28;20199;-81
2023/10/01 13:40:29;;;;;;;13.77;8.10;;;;;;;;;;5039189;28;20257;-83
2023/10/01 14:10:38;;;;;;;13.07;8.25;;;;;;;;;;5021521;28;20598;-83
2023/10/01 14:13:06;;;;;;;11.75;8.27;;;;;;;;;;5022326;28;20824;-83
2023/10/01 14:15:34;;;;;;;14.73;8.95;;;;;;;;;;5027110;28;20262;-84
2023/10/01 14:18:08;;;;;;;16.73;10.10;;;;;;;;;;5028877;28;20213;-87
2023/10/01 14:23:09;;;;;;;14.48;8.55;;;;;;;;;;5021722;28;20211;-84
2023/10/01 14:25:52;;;;;;;10.52;7.35;;;;;;;;;;5026461;28;20246;-84
2023/10/01 14:28:23;;;;;;;12.15;7.32;;;;;;;;;;5013229;28;20729;-80
2023/10/01 14:30:51;;;;;;;12.57;7.57;;;;;;;;;;5015191;28;20217;-83
2023/10/01 14:33:24;;;;;;;10.45;6.97;;;;;;;;;;5010862;28;20203;-81
2023/10/01 14:35:54;;;;;;;11.02;7.25;;;;;;;;;;5019617;28;20239;-82
2023/10/01 14:38:37;;;;;;;12.13;7.30;;;;;;;;;;5010769;28;20227;-82
2023/10/01 14:41:15;;;;;;;10.57;6.85;;;;;;;;;;5020481;28;20266;-79
2023/10/01 14:43:53;;;;;;;12.00;7.10;;;;;;;;;;5009060;28;20253;-79
2023/10/01 14:46:30;;;;;;;11.07;7.03;;;;;;;;;;5018860;28;20313;-83
2023/10/01 14:49:07;;;;;;;11.45;7.63;;;;;;;;;;5002946;28;20237;-81
2023/10/01 14:51:35;;;;;;;13.32;7.85;;;;;;;;;;5013144;28;20205;-84
2023/10/01 14:54:03;;;;;;;12.57;7.13;;;;;;;;;;5032227;28;20234;-82
2023/10/01 14:56:32;;;;;;;10.63;7.18;;;;;;;;;;5026495;28;20231;-82
2023/10/01 14:58:59;;;;;;;10.65;7.40;;;;;;;;;;5010098;28;20202;-80
2023/10/01 15:01:36;;;;;;;10.90;6.80;;;;;;;;;;5027556;28;20303;-81
2023/10/01 15:04:17;;;;;;;14.98;6.82;;;;;;;;;;5018754;28;20203;-80
2023/10/01 15:06:45;;;;;;;9.55;7.03;;;;;;;;;;5016936;28;20221;-81
2023/10/01 15:09:13;;;;;;;12.48;7.10;;;;;;;;;;5028601;28;20593;-81
2023/10/01 15:11:40;;;;;;;11.02;7.35;;;;;;;;;;5026997;28;20231;-82
2023/10/01 15:14:11;;;;;;;10.52;6.60;;;;;;;;;;5020049;28;20829;-81
2023/10/01 15:16:52;;;;;;;10.48;6.82;;;;;;;;;;5001907;28;20696;-79
2023/10/01 15:19:47;;;;;;;10.82;6.60;;;;;;;;;;5016981;28;20215;-83
2023/10/01 15:22:19;;;;;;;10.18;7.03;;;;;;;;;;5017479;28;20215;-82
2023/10/01 15:24:47;;;;;;;9.65;6.63;;;;;;;;;;5021319;28;20226;-83
2023/10/01 15:27:25;;;;;;;9.65;6.72;;;;;;;;;;5017661;28;20211;-78
2023/10/01 15:29:55;;;;;;;9.85;7.05;;;;;;;;;;5009533;28;20228;-80
2023/10/01 15:32:29;;;;;;;10.45;6.65;;;;;;;;;;5014196;28;20693;-82
2023/10/01 15:34:57;;;;;;;10.40;6.43;;;;;;;;;;5022537;28;20238;-81
2023/10/01 15:37:32;;;;;;;10.82;6.95;;;;;;;;;;5015393;28;20760;-83
2023/10/01 15:40:23;;;;;;;8.98;6.28;;;;;;;;;;5015553;28;20222;-81
2023/10/01 15:42:53;;;;;;;10.30;6.30;;;;;;;;;;5015026;28;20198;-81
2023/10/01 15:45:24;;;;;;;8.98;5.78;;;;;;;;;;5023130;28;20227;-81
2023/10/01 15:47:56;;;;;;;9.90;6.45;;;;;;;;;;5002766;28;20291;-81
2023/10/01 15:50:37;;;;;;;8.90;6.13;;;;;;;;;;5002654;28;20887;-80
2023/10/01 15:53:17;;;;;;;10.30;6.63;;;;;;;;;;4997513;28;20674;-85
2023/10/01 15:56:02;;;;;;;9.32;6.32;;;;;;;;;;5013872;28;20239;-82
2023/10/01 15:58:30;;;;;;;8.93;6.20;;;;;;;;;;5014092;28;20199;-79
2023/10/01 16:00:59;;;;;;;8.75;5.85;;;;;;;;;;5022287;28;20281;-81
2023/10/01 16:03:29;;;;;;;11.00;6.85;;;;;;;;;;5019324;28;20203;-82
2023/10/01 16:06:08;;;;;;;9.07;6.15;;;;;;;;;;5020682;28;20298;-82
2023/10/01 16:08:42;;;;;;;11.55;7.05;;;;;;;;;;5019869;28;20777;-79
2023/10/01 16:11:12;;;;;;;10.00;6.05;;;;;;;;;;5014463;28;20982;-82
2023/10/01 16:13:40;;;;;;;9.45;6.30;;;;;;;;;;5024760;28;20207;-82
2023/10/01 16:16:08;;;;;;;10.57;6.47;;;;;;;;;;5025875;28;20226;-79